Time;durP1;ratioP1;P1;durP2;ratioP2;P2;SDS_P1;SDS_P2;PMS_P1;PMS_P2;Temp;Humidity;BMP_temperature;BMP_pressure;BME280_temperature;BME280_humidity;BME280_pressure;Samples;Min_cycle;Max_cycle;Signal;HPM_P1;HPM_P2
2022/05/16 00:00:15;;;;;;;11.27;3.97;;;15.80;99.90;;;;;;5117248;28;20384;-85
2022/05/16 00:02:41;;;;;;;7.60;3.20;;;15.70;99.90;;;;;;5113596;28;20043;-86
2022/05/16 00:05:08;;;;;;;9.38;3.35;;;15.70;99.90;;;;;;5099437;28;20044;-85
2022/05/16 00:07:35;;;;;;;10.13;3.65;;;15.70;99.90;;;;;;5097116;28;20040;-86
2022/05/16 00:10:00;;;;;;;7.43;3.55;;;15.60;99.90;;;;;;5117892;28;20073;-86
2022/05/16 00:12:26;;;;;;;9.63;4.00;;;15.60;99.90;;;;;;5115561;28;20048;-86
2022/05/16 00:14:52;;;;;;;10.48;3.72;;;15.50;99.90;;;;;;5093593;28;20079;-86
2022/05/16 00:17:18;;;;;;;8.85;3.60;;;15.50;99.90;;;;;;5112464;28;20048;-85
2022/05/16 00:19:44;;;;;;;8.35;3.25;;;15.50;99.90;;;;;;5100684;28;20027;-86
2022/05/16 00:22:10;;;;;;;7.88;3.38;;;15.50;99.90;;;;;;5088690;28;20116;-86
2022/05/16 00:24:40;;;;;;;14.32;3.63;;;15.40;99.90;;;;;;5116923;28;20505;-86
2022/05/16 00:27:05;;;;;;;11.27;4.15;;;15.40;99.90;;;;;;5099651;28;20054;-86
2022/05/16 00:29:31;;;;;;;9.57;3.88;;;15.40;99.90;;;;;;5079414;28;20036;-86
2022/05/16 00:31:57;;;;;;;11.25;3.83;;;15.40;99.90;;;;;;5115718;27;20130;-86
2022/05/16 00:34:23;;;;;;;11.25;3.75;;;15.40;99.90;;;;;;5101243;27;20047;-86
2022/05/16 00:36:48;;;;;;;11.73;3.53;;;15.40;99.90;;;;;;5119237;27;20447;-86
2022/05/16 00:39:15;;;;;;;9.85;3.63;;;15.40;99.90;;;;;;5119455;27;20031;-86
2022/05/16 00:41:42;;;;;;;12.32;3.90;;;15.30;99.90;;;;;;5119972;27;20047;-86
2022/05/16 00:44:08;;;;;;;12.13;4.10;;;15.30;99.90;;;;;;5098595;28;20036;-86
2022/05/16 00:46:34;;;;;;;13.57;3.85;;;15.30;99.90;;;;;;5110550;28;20063;-86
2022/05/16 00:49:03;;;;;;;9.27;3.58;;;15.40;99.90;;;;;;5118036;27;20073;-86
2022/05/16 00:51:37;;;;;;;9.40;3.30;;;15.30;99.90;;;;;;5124565;27;20076;-87
2022/05/16 00:54:16;;;;;;;10.05;3.50;;;15.30;99.90;;;;;;5112598;27;20070;-85
2022/05/16 00:56:44;;;;;;;9.32;4.03;;;15.30;99.90;;;;;;5113931;27;20034;-86
2022/05/16 00:59:10;;;;;;;11.27;3.92;;;15.30;99.90;;;;;;5116713;27;20071;-86
2022/05/16 01:07:06;;;;;;;9.15;3.53;;;15.30;99.90;;;;;;5096317;27;20116;-86
2022/05/16 01:09:32;;;;;;;9.05;4.38;;;15.20;99.90;;;;;;5118822;27;20109;-86
2022/05/16 01:11:59;;;;;;;11.88;4.15;;;15.20;99.90;;;;;;5118081;27;20046;-86
2022/05/16 01:14:42;;;;;;;14.05;4.10;;;15.20;99.90;;;;;;5119386;27;20036;-86
2022/05/16 01:17:08;;;;;;;11.10;4.28;;;15.20;99.90;;;;;;5101876;27;20089;-86
2022/05/16 01:19:34;;;;;;;14.68;4.00;;;15.10;99.90;;;;;;5118724;27;20091;-86
2022/05/16 01:22:06;;;;;;;8.50;3.75;;;16.10;99.90;;;;;;5097322;27;20122;-87
2022/05/16 01:24:31;;;;;;;11.02;3.72;;;15.10;99.90;;;;;;5097874;28;20044;-85
2022/05/16 01:26:57;;;;;;;9.18;4.43;;;15.10;99.90;;;;;;5093793;28;20118;-86
2022/05/16 01:29:23;;;;;;;12.25;4.10;;;15.10;99.90;;;;;;5081608;28;20476;-86
2022/05/16 01:31:48;;;;;;;10.65;4.72;;;15.00;99.90;;;;;;5084001;28;20071;-86
2022/05/16 01:34:14;;;;;;;12.55;4.20;;;15.00;99.90;;;;;;5097664;28;20126;-86
2022/05/16 01:36:40;;;;;;;11.27;4.00;;;15.00;99.90;;;;;;5123892;27;20046;-86
2022/05/16 01:39:06;;;;;;;7.28;3.78;;;15.00;99.90;;;;;;5130461;27;20126;-85
2022/05/16 01:41:31;;;;;;;10.60;4.32;;;14.90;99.90;;;;;;5148062;27;20030;-85
2022/05/16 01:44:00;;;;;;;11.60;4.18;;;14.90;99.90;;;;;;5126055;27;20027;-86
2022/05/16 01:46:34;;;;;;;11.63;4.07;;;14.90;99.90;;;;;;5127443;27;20498;-86
2022/05/16 01:48:59;;;;;;;11.07;4.45;;;14.80;99.90;;;;;;5118909;27;20427;-86
2022/05/16 01:51:26;;;;;;;10.07;3.67;;;14.80;99.90;;;;;;5082428;27;20086;-86
2022/05/16 01:53:53;;;;;;;12.10;4.32;;;14.80;99.90;;;;;;5116754;27;20051;-85
2022/05/16 01:56:18;;;;;;;8.50;3.95;;;14.70;99.90;;;;;;5100175;27;20050;-86
2022/05/16 01:58:45;;;;;;;14.07;4.22;;;14.70;99.90;;;;;;5101386;27;20035;-86
2022/05/16 02:01:12;;;;;;;8.80;4.10;;;14.70;99.90;;;;;;5115262;28;20055;-87
2022/05/16 02:03:43;;;;;;;10.20;4.00;;;14.70;99.90;;;;;;5120775;27;20046;-86
2022/05/16 02:06:10;;;;;;;11.52;4.10;;;14.60;99.90;;;;;;5117558;27;20510;-86
2022/05/16 02:08:37;;;;;;;10.35;3.80;;;14.60;99.90;;;;;;5101508;27;20395;-86
2022/05/16 02:11:04;;;;;;;14.60;4.22;;;14.60;99.90;;;;;;5120773;27;20035;-86
2022/05/16 02:13:30;;;;;;;11.63;4.72;;;14.60;99.90;;;;;;5102867;27;20035;-87
2022/05/16 02:15:55;;;;;;;10.75;4.10;;;14.70;99.90;;;;;;5100606;27;20041;-87
2022/05/16 02:18:22;;;;;;;9.18;3.83;;;14.50;99.90;;;;;;5083570;27;20118;-86
2022/05/16 02:20:48;;;;;;;12.05;4.40;;;14.60;99.90;;;;;;5123046;27;20035;-86
2022/05/16 02:25:58;;;;;;;10.00;4.15;;;14.40;99.90;;;;;;5103345;27;20043;-86
2022/05/16 02:28:24;;;;;;;10.95;4.43;;;14.40;99.90;;;;;;5086418;27;20035;-87
2022/05/16 02:30:52;;;;;;;8.82;4.00;;;14.40;99.90;;;;;;5111481;27;20072;-87
2022/05/16 02:33:18;;;;;;;15.20;4.32;;;14.40;99.90;;;;;;5102105;27;20126;-86
2022/05/16 02:35:45;;;;;;;12.95;4.68;;;14.40;99.90;;;;;;5125310;27;20068;-87
2022/05/16 02:38:12;;;;;;;12.20;4.40;;;14.30;99.90;;;;;;5085029;27;20066;-86
2022/05/16 02:40:38;;;;;;;12.20;4.10;;;14.30;99.90;;;;;;5098068;27;20097;-86
2022/05/16 02:43:05;;;;;;;11.60;4.32;;;14.30;99.90;;;;;;5110525;27;20039;-86
2022/05/16 02:45:32;;;;;;;9.82;3.97;;;14.30;99.90;;;;;;5089531;27;20082;-87
2022/05/16 02:47:58;;;;;;;10.18;3.70;;;14.30;99.90;;;;;;5099762;27;20042;-87
2022/05/16 02:50:25;;;;;;;9.05;4.10;;;14.30;99.90;;;;;;5082718;27;20035;-86
2022/05/16 02:52:52;;;;;;;15.05;4.47;;;14.20;99.90;;;;;;5117229;27;20043;-87
2022/05/16 02:55:18;;;;;;;11.07;4.93;;;14.20;99.90;;;;;;5113179;28;20043;-87
2022/05/16 02:57:44;;;;;;;9.20;4.40;;;14.20;99.90;;;;;;5110993;27;20050;-87
2022/05/16 03:00:10;;;;;;;13.30;4.07;;;14.10;99.90;;;;;;5107768;27;20048;-86
2022/05/16 03:02:36;;;;;;;7.93;3.70;;;14.10;99.90;;;;;;5109336;27;20117;-85
2022/05/16 03:05:03;;;;;;;9.50;4.10;;;14.10;99.90;;;;;;5104797;28;20063;-87
2022/05/16 03:07:29;;;;;;;14.73;4.45;;;14.10;99.90;;;;;;5111848;27;20504;-86
2022/05/16 03:09:54;;;;;;;11.23;4.53;;;14.10;99.90;;;;;;5117849;27;20114;-86
2022/05/16 03:12:20;;;;;;;15.82;4.40;;;14.00;99.90;;;;;;5100262;27;20475;-86
2022/05/16 03:14:46;;;;;;;8.50;3.72;;;14.00;99.90;;;;;;5101761;27;20049;-86
2022/05/16 03:17:12;;;;;;;12.13;4.05;;;14.00;99.90;;;;;;5100828;27;20039;-86
2022/05/16 03:19:38;;;;;;;8.40;3.85;;;14.00;99.90;;;;;;5082431;27;20499;-86
2022/05/16 03:22:05;;;;;;;11.70;4.50;;;14.00;99.90;;;;;;5091833;27;20066;-87
2022/05/16 03:24:31;;;;;;;12.18;4.25;;;13.90;99.90;;;;;;5116741;27;20047;-87
2022/05/16 03:26:58;;;;;;;11.07;4.15;;;13.90;99.90;;;;;;5100046;27;20039;-87
2022/05/16 03:29:24;;;;;;;14.05;4.10;;;14.00;99.90;;;;;;5099271;27;20038;-87
2022/05/16 03:31:50;;;;;;;14.68;4.00;;;13.90;99.90;;;;;;5117036;27;20046;-87
2022/05/16 03:34:16;;;;;;;9.32;3.78;;;13.90;99.90;;;;;;5117442;27;20051;-86
2022/05/16 03:36:42;;;;;;;16.08;4.20;;;13.90;99.90;;;;;;5113203;27;20035;-85
2022/05/16 03:41:53;;;;;;;11.73;3.80;;;13.80;99.90;;;;;;5112131;28;20046;-86
2022/05/16 03:44:19;;;;;;;10.75;4.07;;;13.80;99.90;;;;;;5113682;28;20046;-86
2022/05/16 03:46:45;;;;;;;9.23;3.80;;;13.80;99.90;;;;;;5108098;28;20039;-86
2022/05/16 03:49:11;;;;;;;11.40;3.97;;;13.70;99.90;;;;;;5116656;28;20126;-85
2022/05/16 03:51:37;;;;;;;10.30;3.90;;;13.70;99.90;;;;;;5084551;28;20042;-86
2022/05/16 03:54:04;;;;;;;12.15;4.00;;;13.70;99.90;;;;;;5084350;28;20050;-86
2022/05/16 03:56:30;;;;;;;8.82;3.92;;;13.70;99.90;;;;;;5115849;28;20123;-86
2022/05/16 03:58:57;;;;;;;11.32;4.03;;;13.60;99.90;;;;;;5116236;28;20027;-87
2022/05/16 04:01:24;;;;;;;12.30;4.35;;;13.70;99.90;;;;;;5116740;28;20038;-85
2022/05/16 04:03:51;;;;;;;9.25;4.00;;;13.70;99.90;;;;;;5099051;28;20114;-86
2022/05/16 04:06:17;;;;;;;11.85;4.10;;;13.70;99.90;;;;;;5096557;28;20556;-86
2022/05/16 04:08:43;;;;;;;10.82;4.47;;;13.70;99.90;;;;;;5099953;28;20074;-86
2022/05/16 04:11:11;;;;;;;10.25;4.03;;;13.70;99.90;;;;;;5099428;28;20027;-86
2022/05/16 04:13:37;;;;;;;16.90;4.50;;;13.50;99.90;;;;;;5115606;28;20043;-86
2022/05/16 04:16:03;;;;;;;11.93;3.67;;;13.70;99.90;;;;;;5089811;28;20080;-86
2022/05/16 04:18:29;;;;;;;11.13;3.70;;;13.70;99.90;;;;;;5088043;28;20510;-87
2022/05/16 04:20:55;;;;;;;11.23;4.18;;;13.60;99.90;;;;;;5115646;28;20043;-86
2022/05/16 04:23:20;;;;;;;8.82;3.53;;;13.70;99.90;;;;;;5101717;28;20091;-86
2022/05/16 04:25:46;;;;;;;8.23;3.40;;;13.70;99.90;;;;;;5099670;28;20043;-86
2022/05/16 04:28:12;;;;;;;11.55;3.97;;;13.70;99.90;;;;;;5112040;28;20043;-87
2022/05/16 04:30:39;;;;;;;9.30;3.50;;;13.70;99.90;;;;;;5090621;28;20510;-87
2022/05/16 04:33:06;;;;;;;9.02;3.97;;;13.70;99.90;;;;;;5096760;28;20145;-86
2022/05/16 04:35:33;;;;;;;12.73;3.70;;;13.70;99.90;;;;;;5112451;28;20048;-87
2022/05/16 04:37:59;;;;;;;7.55;3.65;;;13.70;99.90;;;;;;5086497;28;20055;-87
2022/05/16 04:40:24;;;;;;;9.13;3.92;;;13.70;99.90;;;;;;5100798;27;20039;-87
2022/05/16 04:42:50;;;;;;;10.48;3.80;;;13.70;99.90;;;;;;5109471;27;20050;-86
2022/05/16 04:45:22;;;;;;;9.63;4.00;;;13.70;99.90;;;;;;5099774;28;20085;-86
2022/05/16 04:47:51;;;;;;;12.15;3.97;;;13.70;99.90;;;;;;5097632;28;20031;-87
2022/05/16 04:50:21;;;;;;;9.18;3.70;;;13.70;99.90;;;;;;5109940;28;20089;-87
2022/05/16 04:52:47;;;;;;;9.98;3.42;;;13.70;99.90;;;;;;5111181;28;20048;-87
2022/05/16 04:55:14;;;;;;;12.45;4.40;;;13.70;99.90;;;;;;5093541;28;20039;-87
2022/05/16 04:57:40;;;;;;;10.60;4.25;;;13.80;99.90;;;;;;5092543;28;20044;-86
2022/05/16 05:00:08;;;;;;;12.57;3.95;;;13.80;99.90;;;;;;5099426;28;20118;-87
2022/05/16 05:02:34;;;;;;;9.57;3.90;;;13.80;99.90;;;;;;5104510;28;20089;-87
2022/05/16 05:05:00;;;;;;;11.32;3.80;;;13.80;99.90;;;;;;5116958;28;20514;-86
2022/05/16 05:07:26;;;;;;;14.77;3.70;;;13.80;99.90;;;;;;5100265;28;20043;-87
2022/05/16 05:15:20;;;;;;;14.35;4.18;;;14.00;99.90;;;;;;5081045;28;20039;-87
2022/05/16 05:17:46;;;;;;;9.98;3.60;;;14.00;99.90;;;;;;5107080;28;20043;-86
2022/05/16 05:20:13;;;;;;;8.90;3.58;;;14.10;99.90;;;;;;5095238;28;20043;-86
2022/05/16 05:22:43;;;;;;;10.02;3.97;;;14.10;99.90;;;;;;5114448;28;20046;-85
2022/05/16 05:25:12;;;;;;;13.88;3.95;;;14.20;99.90;;;;;;5115368;28;20452;-87
2022/05/16 05:27:39;;;;;;;11.20;3.85;;;14.20;99.90;;;;;;5110769;28;20122;-87
2022/05/16 05:30:08;;;;;;;15.15;3.90;;;14.30;99.90;;;;;;5116706;28;20395;-87
2022/05/16 05:32:33;;;;;;;13.48;4.15;;;14.40;99.90;;;;;;5115357;28;20063;-87
2022/05/16 05:34:59;;;;;;;12.65;3.97;;;14.40;99.90;;;;;;5098939;28;20407;-87
2022/05/16 05:37:25;;;;;;;9.02;3.92;;;14.50;99.90;;;;;;5079963;28;20467;-87
2022/05/16 05:39:52;;;;;;;12.45;4.20;;;14.60;99.90;;;;;;5099772;28;20081;-87
2022/05/16 05:42:18;;;;;;;9.55;4.50;;;14.60;99.90;;;;;;5096218;28;20047;-87
2022/05/16 05:44:44;;;;;;;8.55;3.80;;;14.70;99.90;;;;;;5096439;28;20448;-87
2022/05/16 05:47:09;;;;;;;11.85;4.20;;;14.80;99.90;;;;;;5083963;28;20093;-86
2022/05/16 05:49:36;;;;;;;12.25;3.92;;;14.90;99.90;;;;;;5092781;28;20047;-87
2022/05/16 05:52:03;;;;;;;12.60;3.70;;;14.90;99.90;;;;;;5108839;28;20122;-86
2022/05/16 05:54:28;;;;;;;12.63;3.85;;;15.00;99.90;;;;;;5095123;28;20122;-87
2022/05/16 05:56:54;;;;;;;7.78;3.55;;;15.10;99.90;;;;;;5096395;28;20067;-86
2022/05/16 05:59:20;;;;;;;11.70;3.67;;;15.20;99.90;;;;;;5091659;28;20437;-88
2022/05/16 06:01:46;;;;;;;8.57;3.70;;;15.20;99.90;;;;;;5103637;28;20047;-86
2022/05/16 06:04:12;;;;;;;9.18;3.63;;;15.30;99.90;;;;;;5099962;28;20177;-86
2022/05/16 06:06:40;;;;;;;12.43;4.28;;;15.40;99.90;;;;;;5111172;27;20075;-86
2022/05/16 06:09:06;;;;;;;12.75;3.72;;;15.50;99.90;;;;;;5119980;27;20503;-86
2022/05/16 06:11:31;;;;;;;11.57;3.97;;;15.60;99.90;;;;;;5098205;28;20040;-85
2022/05/16 06:13:58;;;;;;;9.30;3.83;;;15.70;99.90;;;;;;5115872;28;20046;-85
2022/05/16 06:16:24;;;;;;;11.25;3.92;;;15.70;99.90;;;;;;5094573;28;20040;-86
2022/05/16 06:18:49;;;;;;;10.43;3.72;;;15.80;99.90;;;;;;5078379;28;20126;-86
2022/05/16 06:21:15;;;;;;;13.30;4.50;;;15.90;99.90;;;;;;5094926;28;20070;-83
2022/05/16 06:23:41;;;;;;;10.52;3.90;;;16.00;99.90;;;;;;5110349;28;20039;-84
2022/05/16 06:26:07;;;;;;;11.68;3.70;;;16.20;99.90;;;;;;5098665;28;20127;-83
2022/05/16 06:28:37;;;;;;;10.68;3.45;;;16.30;99.90;;;;;;5107545;28;20040;-81
2022/05/16 06:31:04;;;;;;;13.05;4.18;;;16.40;99.90;;;;;;5098028;28;20032;-84
2022/05/16 06:33:30;;;;;;;10.20;3.42;;;16.60;99.90;;;;;;5098988;28;20108;-83
2022/05/16 06:35:57;;;;;;;10.82;3.65;;;16.80;99.90;;;;;;5115925;28;20043;-81
2022/05/16 06:38:30;;;;;;;10.68;3.70;;;16.90;99.90;;;;;;5092204;28;20055;-84
2022/05/16 06:41:00;;;;;;;11.68;3.63;;;17.20;99.90;;;;;;5115553;28;20062;-82
2022/05/16 06:43:28;;;;;;;8.25;3.17;;;17.50;99.90;;;;;;5114715;28;20104;-83
2022/05/16 06:45:54;;;;;;;12.02;4.20;;;18.00;99.90;;;;;;5105154;28;20050;-82
2022/05/16 06:48:20;;;;;;;12.25;3.75;;;18.40;99.90;;;;;;5082722;28;20115;-83
2022/05/16 06:50:48;;;;;;;13.02;4.18;;;18.80;99.90;;;;;;5095790;28;20053;-82
2022/05/16 06:53:17;;;;;;;10.45;3.45;;;18.90;99.90;;;;;;5096464;28;20039;-85
2022/05/16 06:55:43;;;;;;;10.05;3.50;;;18.90;99.90;;;;;;5110079;27;20392;-85
2022/05/16 06:58:09;;;;;;;10.65;3.55;;;18.90;99.90;;;;;;5133716;28;20043;-86
2022/05/16 07:00:35;;;;;;;12.70;3.78;;;19.00;99.90;;;;;;5115249;28;20163;-85
2022/05/16 07:03:01;;;;;;;9.10;3.53;;;19.10;99.90;;;;;;5133542;28;20055;-85
2022/05/16 07:05:27;;;;;;;7.90;3.42;;;19.20;99.90;;;;;;5081910;28;20036;-86
2022/05/16 07:07:55;;;;;;;12.70;3.53;;;19.30;99.90;;;;;;5096715;28;20047;-86
2022/05/16 07:10:21;;;;;;;14.85;3.88;;;19.40;99.90;;;;;;5068145;28;20067;-86
2022/05/16 07:12:47;;;;;;;12.07;3.38;;;19.70;99.90;;;;;;5111589;28;20379;-86
2022/05/16 07:15:13;;;;;;;10.57;3.67;;;20.00;99.90;;;;;;5106249;28;20123;-87
2022/05/16 07:17:39;;;;;;;9.60;3.13;;;20.30;99.50;;;;;;5089887;28;20044;-86
2022/05/16 07:20:05;;;;;;;9.55;3.65;;;20.60;99.10;;;;;;5088908;28;20040;-87
2022/05/16 07:22:31;;;;;;;7.45;3.55;;;20.90;98.80;;;;;;5083244;28;20527;-85
2022/05/16 07:24:59;;;;;;;8.55;3.47;;;21.30;98.10;;;;;;5079011;28;20072;-85
2022/05/16 07:30:12;;;;;;;9.77;3.80;;;21.60;96.50;;;;;;5097838;28;20044;-86
2022/05/16 07:32:44;;;;;;;10.63;3.72;;;21.70;96.00;;;;;;5117995;27;20462;-86
2022/05/16 07:35:17;;;;;;;10.48;4.07;;;21.80;95.10;;;;;;5118331;27;20043;-86
2022/05/16 07:42:02;;;;;;;10.48;3.20;;;22.00;93.10;;;;;;5122999;27;20034;-87
2022/05/16 07:44:28;;;;;;;10.88;3.70;;;22.20;93.60;;;;;;5108034;28;20046;-86
2022/05/16 07:46:53;;;;;;;8.50;3.33;;;22.30;91.90;;;;;;5089070;28;20028;-86
2022/05/16 07:49:22;;;;;;;13.00;3.92;;;22.30;91.90;;;;;;5095682;28;20134;-88
2022/05/16 07:51:48;;;;;;;9.38;3.47;;;22.40;92.30;;;;;;5098061;28;20084;-87
2022/05/16 07:54:13;;;;;;;14.82;4.40;;;22.50;92.40;;;;;;5081609;28;20027;-87
2022/05/16 07:56:39;;;;;;;12.73;4.25;;;22.60;91.60;;;;;;5113292;28;20043;-86
2022/05/16 07:59:06;;;;;;;11.63;3.53;;;22.70;91.00;;;;;;5096359;28;20467;-87
2022/05/16 08:01:32;;;;;;;8.93;3.50;;;22.80;90.70;;;;;;5077671;28;20058;-89
2022/05/16 08:03:58;;;;;;;9.00;3.60;;;23.00;90.60;;;;;;5113189;28;20027;-89
2022/05/16 08:06:27;;;;;;;8.77;3.50;;;23.10;90.00;;;;;;5094947;28;20570;-86
2022/05/16 08:11:38;;;;;;;10.85;3.83;;;23.20;88.70;;;;;;5111230;28;20394;-88
2022/05/16 08:14:04;;;;;;;11.52;3.65;;;23.30;87.00;;;;;;5094687;28;20031;-89
2022/05/16 08:16:30;;;;;;;10.07;3.90;;;23.30;87.30;;;;;;5098139;27;20119;-88
2022/05/16 08:18:56;;;;;;;12.90;3.40;;;23.30;86.70;;;;;;5099936;27;20111;-87
2022/05/16 08:21:21;;;;;;;10.70;3.58;;;23.40;87.50;;;;;;5118995;27;20099;-88
2022/05/16 08:23:47;;;;;;;12.10;3.55;;;23.50;86.70;;;;;;5116927;27;20039;-88
2022/05/16 08:26:13;;;;;;;7.57;3.58;;;23.60;85.90;;;;;;5098599;27;20066;-88
2022/05/16 08:28:39;;;;;;;10.07;3.78;;;23.60;84.20;;;;;;5101368;27;20096;-88
2022/05/16 08:31:05;;;;;;;11.50;3.53;;;23.60;84.50;;;;;;5116609;27;20103;-88
2022/05/16 08:33:33;;;;;;;8.93;3.63;;;23.60;83.70;;;;;;5096983;27;20070;-88
2022/05/16 08:41:38;;;;;;;8.05;3.50;;;23.70;84.20;;;;;;5116978;27;20053;-88
2022/05/16 08:44:14;;;;;;;8.88;3.45;;;24.00;84.80;;;;;;5096782;27;20070;-88
2022/05/16 08:46:44;;;;;;;;;;;23.90;83.00;;;;;;5095551;27;20062;-86
2022/05/16 08:49:25;;;;;;;9.18;2.88;;;24.00;83.40;;;;;;5097481;27;19915;-89
2022/05/16 08:52:12;;;;;;;10.50;3.33;;;24.20;83.60;;;;;;5112834;27;20103;-89
2022/05/16 08:54:45;;;;;;;10.98;3.28;;;24.30;80.60;;;;;;5113477;27;20038;-87
2022/05/16 08:57:17;;;;;;;8.13;3.65;;;24.20;80.80;;;;;;5098454;27;20050;-87
2022/05/16 08:59:49;;;;;;;10.18;3.15;;;24.10;81.40;;;;;;5115621;27;20080;-88
2022/05/16 09:02:24;;;;;;;8.90;3.10;;;24.10;82.30;;;;;;5098580;27;20035;-88
2022/05/16 09:05:05;;;;;;;9.00;3.17;;;24.10;79.10;;;;;;5099913;27;20039;-89
2022/05/16 09:07:47;;;;;;;12.23;2.85;;;24.00;80.40;;;;;;5113108;27;20053;-88
2022/05/16 09:10:23;;;;;;;10.55;3.30;;;24.10;80.50;;;;;;5095828;27;20031;-89
2022/05/16 09:12:57;;;;;;;11.25;3.40;;;24.10;80.80;;;;;;5112604;27;20081;-88
2022/05/16 09:15:38;;;;;;;9.85;3.45;;;24.20;81.20;;;;;;5097173;27;20035;-88
2022/05/16 09:18:41;;;;;;;10.40;3.38;;;24.30;80.40;;;;;;5096470;27;20035;-89
2022/05/16 09:21:17;;;;;;;9.82;3.47;;;24.40;78.80;;;;;;5111966;27;20047;-88
2022/05/16 09:23:50;;;;;;;9.50;3.50;;;24.20;79.20;;;;;;5111212;27;20043;-88
2022/05/16 09:26:40;;;;;;;9.70;3.65;;;24.20;79.60;;;;;;5097178;27;20123;-88
2022/05/16 09:29:17;;;;;;;9.02;3.40;;;24.20;80.80;;;;;;5098133;27;20124;-88
2022/05/16 09:31:45;;;;;;;6.93;3.70;;;24.20;79.60;;;;;;5095220;27;20035;-88
2022/05/16 09:34:12;;;;;;;11.32;4.10;;;24.20;79.70;;;;;;5119039;27;20041;-89
2022/05/16 09:36:42;;;;;;;8.75;3.33;;;24.20;81.60;;;;;;5106894;27;20559;-85
2022/05/16 09:39:10;;;;;;;8.75;3.60;;;24.20;80.70;;;;;;5110767;27;20052;-86
2022/05/16 09:41:43;;;;;;;9.70;3.88;;;24.20;80.40;;;;;;5110715;27;20497;-85
2022/05/16 09:44:22;;;;;;;7.93;3.55;;;24.20;81.10;;;;;;5112373;27;20091;-85
2022/05/16 09:46:49;;;;;;;10.13;3.97;;;24.10;81.70;;;;;;5112193;27;20047;-86
2022/05/16 09:49:27;;;;;;;8.50;3.10;;;24.10;81.50;;;;;;5095699;27;20036;-85
2022/05/16 09:51:59;;;;;;;7.95;3.45;;;24.00;82.40;;;;;;5112274;27;20479;-87
2022/05/16 09:54:27;;;;;;;11.73;4.30;;;23.90;82.20;;;;;;5095270;27;20122;-88
2022/05/16 09:57:12;;;;;;;9.82;3.63;;;23.80;83.10;;;;;;5099180;27;20043;-87
2022/05/16 09:59:50;;;;;;;9.10;3.20;;;23.70;82.80;;;;;;5095052;27;20065;-88
2022/05/16 10:02:28;;;;;;;10.43;4.05;;;23.50;83.30;;;;;;5095823;27;20050;-89
2022/05/16 10:05:21;;;;;;;7.22;3.08;;;23.50;85.30;;;;;;5095007;27;20043;-88
2022/05/16 10:08:14;;;;;;;12.55;4.25;;;23.40;86.60;;;;;;5094307;27;20031;-87
2022/05/16 10:10:42;;;;;;;12.52;3.90;;;23.30;89.10;;;;;;5112758;27;20118;-88
2022/05/16 10:13:08;;;;;;;8.10;3.55;;;23.30;89.90;;;;;;5111427;27;20030;-88
2022/05/16 10:15:36;;;;;;;16.85;4.28;;;23.30;90.50;;;;;;5096174;27;20042;-88
2022/05/16 10:18:07;;;;;;;25.45;4.43;;;23.30;92.20;;;;;;5095253;27;20142;-88
2022/05/16 10:20:39;;;;;;;8.57;4.10;;;23.40;93.60;;;;;;5112895;27;20409;-88
2022/05/16 10:23:09;;;;;;;17.02;4.18;;;23.60;93.30;;;;;;5112325;27;20031;-88
2022/05/16 10:25:42;;;;;;;10.18;4.05;;;23.70;92.50;;;;;;5112833;27;20039;-88
2022/05/16 10:28:14;;;;;;;13.05;3.88;;;23.70;91.50;;;;;;5111942;27;20109;-88
2022/05/16 10:33:29;;;;;;;9.85;3.83;;;23.70;91.50;;;;;;5097018;27;20126;-88
2022/05/16 10:36:12;;;;;;;8.32;3.60;;;23.70;91.20;;;;;;5095418;27;20066;-87
2022/05/16 10:38:54;;;;;;;10.05;3.72;;;23.70;91.00;;;;;;5097189;27;20487;-88
2022/05/16 10:41:43;;;;;;;8.98;3.40;;;23.70;90.70;;;;;;5091744;27;20035;-88
2022/05/16 10:44:22;;;;;;;11.48;3.58;;;23.70;90.20;;;;;;5109890;27;20036;-87
2022/05/16 10:47:27;;;;;;;8.40;3.10;;;23.70;89.90;;;;;;5095166;27;20035;-88
2022/05/16 10:50:14;;;;;;;7.30;3.13;;;23.70;89.50;;;;;;5095458;27;20134;-88
2022/05/16 10:52:49;;;;;;;6.35;3.63;;;23.80;90.80;;;;;;5110763;27;20483;-88
2022/05/16 10:55:14;;;;;;;8.57;2.97;;;23.80;90.40;;;;;;5110419;27;20086;-88
2022/05/16 10:57:46;;;;;;;6.72;3.13;;;23.90;90.00;;;;;;5112310;27;20039;-89
2022/05/16 11:00:15;;;;;;;7.72;3.60;;;24.00;90.20;;;;;;5097013;27;20068;-88
2022/05/16 11:02:50;;;;;;;5.10;2.90;;;24.10;90.10;;;;;;5111254;27;20047;-87
2022/05/16 11:05:25;;;;;;;10.13;3.63;;;24.30;90.20;;;;;;5095012;27;20055;-88
2022/05/16 11:07:57;;;;;;;13.57;3.97;;;24.30;89.40;;;;;;5094996;27;20050;-89
2022/05/16 11:10:36;;;;;;;10.48;3.40;;;24.20;89.10;;;;;;5091799;27;20040;-89
2022/05/16 11:13:38;;;;;;;7.95;3.22;;;24.20;88.60;;;;;;5084578;27;20402;-88
2022/05/16 11:16:15;;;;;;;28.75;4.97;;;24.30;88.80;;;;;;5115391;27;20081;-89
2022/05/16 11:18:51;;;;;;;13.02;3.50;;;24.20;88.50;;;;;;5096262;27;20483;-88
2022/05/16 11:21:29;;;;;;;;;;;24.20;88.70;;;;;;5112256;27;20131;-88
2022/05/16 11:24:28;;;;;;;9.85;3.63;;;24.20;90.10;;;;;;5094242;27;19916;-88
2022/05/16 11:27:15;;;;;;;7.63;3.50;;;24.20;89.30;;;;;;5112727;27;20057;-88
2022/05/16 11:30:13;;;;;;;6.53;3.17;;;24.20;89.50;;;;;;5094448;27;20040;-89
2022/05/16 11:33:07;;;;;;;6.78;3.58;;;24.30;89.80;;;;;;5110254;27;20051;-88
2022/05/16 11:35:36;;;;;;;7.43;3.70;;;24.30;88.60;;;;;;5112766;27;20067;-88
2022/05/16 11:38:37;;;;;;;6.90;4.07;;;24.20;89.60;;;;;;5112833;27;20042;-88
2022/05/16 11:41:02;;;;;;;8.85;3.95;;;24.20;89.60;;;;;;5094134;27;20039;-89
2022/05/16 11:43:32;;;;;;;7.95;3.95;;;24.20;89.80;;;;;;5113707;28;20122;-88
2022/05/16 11:46:23;;;;;;;9.15;4.40;;;24.20;90.00;;;;;;5094624;27;20068;-86
2022/05/16 11:49:26;;;;;;;13.00;3.85;;;24.20;90.10;;;;;;5092772;28;20054;-84
2022/05/16 11:52:21;;;;;;;10.32;4.13;;;24.20;90.80;;;;;;5099218;28;20047;-87
2022/05/16 11:54:57;;;;;;;14.50;5.00;;;24.20;90.50;;;;;;5087243;28;20533;-89
2022/05/16 12:00:32;;;;;;;8.07;3.97;;;24.20;90.20;;;;;;5099576;28;20035;-88
2022/05/16 12:02:58;;;;;;;9.30;4.55;;;24.20;90.50;;;;;;5114975;28;20040;-88
2022/05/16 12:05:25;;;;;;;9.30;4.00;;;24.30;90.50;;;;;;5106284;28;20068;-89
2022/05/16 12:08:14;;;;;;;27.45;5.30;;;24.40;90.40;;;;;;5129634;28;20035;-86
2022/05/16 12:11:02;;;;;;;11.07;4.60;;;24.50;90.40;;;;;;5110451;28;20704;-88
2022/05/16 12:13:33;;;;;;;10.77;4.90;;;24.70;90.70;;;;;;5114873;28;20052;-89
2022/05/16 12:16:25;;;;;;;12.13;4.90;;;24.80;89.90;;;;;;5115815;28;20024;-88
2022/05/16 12:19:11;;;;;;;11.02;5.82;;;25.00;88.90;;;;;;5116790;28;20051;-88
2022/05/16 12:21:37;;;;;;;11.88;5.35;;;25.20;88.70;;;;;;5094989;28;20034;-88
2022/05/16 12:24:28;;;;;;;9.55;4.53;;;25.20;88.90;;;;;;5094073;28;20066;-90
2022/05/16 12:27:16;;;;;;;11.23;5.18;;;25.20;87.80;;;;;;5097988;28;20118;-89
2022/05/16 12:29:56;;;;;;;9.13;4.70;;;25.10;87.90;;;;;;5115298;28;20039;-89
2022/05/16 12:32:43;;;;;;;9.00;4.75;;;25.00;88.20;;;;;;5111854;28;20415;-88
2022/05/16 12:35:27;;;;;;;13.10;4.95;;;25.00;87.40;;;;;;5083912;28;20039;-88
2022/05/16 12:37:56;;;;;;;13.05;5.55;;;25.00;89.20;;;;;;5096083;28;20043;-89
2022/05/16 12:40:22;;;;;;;10.18;5.10;;;25.10;88.40;;;;;;5110732;28;20031;-88
2022/05/16 12:43:06;;;;;;;11.23;5.25;;;25.00;88.00;;;;;;5094410;28;20038;-88
2022/05/16 12:46:00;;;;;;;14.10;5.57;;;25.00;87.90;;;;;;5095186;28;20042;-88
2022/05/16 12:48:53;;;;;;;13.05;6.07;;;25.00;88.40;;;;;;5112918;28;20073;-88
2022/05/16 12:51:47;;;;;;;11.35;5.88;;;24.90;87.90;;;;;;5107843;28;20487;-87
2022/05/16 12:54:46;;;;;;;19.70;6.70;;;25.00;88.60;;;;;;5096115;28;20049;-88
2022/05/16 12:57:44;;;;;;;49.70;7.53;;;24.90;88.90;;;;;;5110294;28;20035;-89
2022/05/16 13:00:21;;;;;;;14.57;6.95;;;25.10;88.50;;;;;;5096744;28;20134;-87
2022/05/16 13:03:18;;;;;;;11.95;8.65;;;25.30;89.50;;;;;;5113805;27;20054;-88
2022/05/16 13:06:03;;;;;;;39.75;10.57;;;25.90;88.60;;;;;;5099474;27;20544;-87
2022/05/16 13:08:47;;;;;;;13.07;8.60;;;26.30;86.60;;;;;;5103007;27;20112;-88
2022/05/16 13:11:34;;;;;;;11.93;8.25;;;26.80;85.60;;;;;;5099158;27;20046;-88
2022/05/16 13:14:16;;;;;;;12.98;8.63;;;27.10;84.70;;;;;;5097411;27;20027;-89
2022/05/16 13:16:53;;;;;;;10.98;6.88;;;27.30;82.70;;;;;;5113485;27;20054;-87
2022/05/16 13:19:23;;;;;;;12.35;8.90;;;27.50;82.60;;;;;;5116220;27;20378;-87
2022/05/16 13:22:02;;;;;;;14.63;8.40;;;27.70;82.50;;;;;;5099200;27;20047;-87
2022/05/16 13:24:28;;;;;;;18.20;8.32;;;27.70;80.70;;;;;;5115597;27;20035;-89
2022/05/16 13:29:48;;;;;;;15.70;7.47;;;27.50;80.90;;;;;;5114223;27;20364;-89
2022/05/16 13:32:20;;;;;;;37.90;10.90;;;27.30;80.50;;;;;;5099851;27;20059;-88
2022/05/16 13:34:47;;;;;;;23.52;8.25;;;27.10;80.10;;;;;;5101948;27;20124;-89
2022/05/16 13:37:18;;;;;;;20.58;8.30;;;26.90;79.80;;;;;;5098119;27;20043;-88
2022/05/16 13:39:47;;;;;;;11.10;6.68;;;26.60;80.10;;;;;;5115515;27;20039;-88